createdAt,value
2023-04-15T00:01:48.051Z,10.50
2023-04-15T00:04:14.749Z,10.49
2023-04-15T00:06:41.698Z,10.46
2023-04-15T00:09:08.142Z,10.49
2023-04-15T00:11:34.798Z,10.46
2023-04-15T00:14:01.284Z,10.47
2023-04-15T00:16:28.436Z,10.44
2023-04-15T00:18:55.075Z,10.43
2023-04-15T00:21:21.820Z,10.43
2023-04-15T00:23:52.577Z,10.43
2023-04-15T00:26:19.767Z,10.42
2023-04-15T00:28:48.937Z,10.42
2023-04-15T00:31:15.686Z,10.38
2023-04-15T00:33:42.260Z,10.41
2023-04-15T00:36:08.845Z,10.39
2023-04-15T00:38:39.131Z,10.38
2023-04-15T00:41:05.743Z,10.40
2023-04-15T00:43:32.306Z,10.40
2023-04-15T00:45:59.963Z,10.37
2023-04-15T00:48:27.943Z,10.37
2023-04-15T00:50:54.420Z,10.36
2023-04-15T00:53:20.892Z,10.35
2023-04-15T00:55:47.510Z,10.36
2023-04-15T00:58:14.758Z,10.34
2023-04-15T01:00:42.934Z,10.35
2023-04-15T01:03:10.035Z,10.33
2023-04-15T01:05:36.934Z,10.32
2023-04-15T01:08:03.742Z,10.32
2023-04-15T01:10:31.898Z,10.33
2023-04-15T01:12:58.476Z,10.32
2023-04-15T01:15:25.805Z,10.31
2023-04-15T01:17:52.713Z,10.31
2023-04-15T01:20:20.597Z,10.29
2023-04-15T01:22:47.101Z,10.30
2023-04-15T01:25:18.606Z,10.29
2023-04-15T01:27:45.555Z,10.28
2023-04-15T01:30:12.509Z,10.27
2023-04-15T01:32:39.145Z,10.26
2023-04-15T01:35:06.205Z,10.27
2023-04-15T01:37:33.604Z,10.25
2023-04-15T01:40:00.206Z,10.26
2023-04-15T01:42:27.602Z,10.24
2023-04-15T01:44:54.458Z,10.23
2023-04-15T01:47:21.576Z,10.24
2023-04-15T01:49:48.452Z,10.23
2023-04-15T01:52:15.690Z,10.21
2023-04-15T01:54:42.526Z,10.19
2023-04-15T01:57:09.370Z,10.19
2023-04-15T01:59:36.252Z,10.17
2023-04-15T02:02:02.905Z,10.17
2023-04-15T02:04:29.442Z,10.15
2023-04-15T02:06:59.821Z,10.16
2023-04-15T02:09:26.337Z,10.16
2023-04-15T02:11:54.234Z,10.15
2023-04-15T02:14:20.970Z,10.11
2023-04-15T02:16:47.583Z,10.16
2023-04-15T02:19:15.864Z,10.14
2023-04-15T02:21:42.400Z,10.12
2023-04-15T02:24:09.097Z,10.13
2023-04-15T02:26:35.575Z,10.13
2023-04-15T02:29:02.464Z,10.13
2023-04-15T02:31:29.164Z,10.12
2023-04-15T02:33:55.758Z,10.10
2023-04-15T02:36:23.833Z,10.08
2023-04-15T02:38:50.669Z,10.08
2023-04-15T02:41:17.864Z,10.09
2023-04-15T02:43:45.693Z,10.07
2023-04-15T02:46:14.881Z,10.08
2023-04-15T02:48:41.825Z,10.08
2023-04-15T02:51:17.386Z,10.05
2023-04-15T02:53:44.066Z,10.05
2023-04-15T02:56:11.664Z,10.03
2023-04-15T02:58:39.373Z,10.06
2023-04-15T03:01:05.934Z,10.04
2023-04-15T03:03:32.724Z,10.05
2023-04-15T03:05:59.349Z,10.02
2023-04-15T03:08:26.528Z,10.02
2023-04-15T03:10:53.686Z,10.01
2023-04-15T03:13:20.856Z,10.00
2023-04-15T03:15:48.597Z,10.00
2023-04-15T03:18:15.561Z,9.99
2023-04-15T03:20:42.174Z,10.00
2023-04-15T03:23:08.873Z,9.99
2023-04-15T03:25:37.429Z,9.99
2023-04-15T03:28:06.094Z,9.98
2023-04-15T03:30:33.224Z,9.98
2023-04-15T03:32:59.822Z,9.98
2023-04-15T03:35:26.450Z,9.99
2023-04-15T03:37:53.009Z,9.99
2023-04-15T03:40:21.510Z,9.97
2023-04-15T03:42:48.133Z,9.95
2023-04-15T03:45:14.916Z,9.97
2023-04-15T03:47:41.578Z,9.95
2023-04-15T03:50:09.103Z,9.95
2023-04-15T03:52:35.733Z,9.94
2023-04-15T03:55:02.348Z,9.94
2023-04-15T03:57:28.852Z,9.95
2023-04-15T03:59:55.481Z,9.95
2023-04-15T04:02:23.185Z,9.95
2023-04-15T04:04:50.405Z,9.94
2023-04-15T04:07:18.312Z,9.96
2023-04-15T04:09:47.010Z,9.95
2023-04-15T04:12:14.005Z,9.94
2023-04-15T04:14:40.783Z,9.95
2023-04-15T04:17:07.407Z,9.95
2023-04-15T04:19:34.151Z,9.95
2023-04-15T04:22:01.311Z,9.95
2023-04-15T04:24:27.940Z,9.96
2023-04-15T04:26:54.458Z,9.94
2023-04-15T04:29:21.378Z,9.94
2023-04-15T04:31:48.938Z,9.95
2023-04-15T04:34:16.250Z,9.92
2023-04-15T04:36:42.762Z,9.96
2023-04-15T04:39:09.279Z,9.96
2023-04-15T04:41:35.979Z,9.95
2023-04-15T04:44:02.706Z,9.96
2023-04-15T04:46:29.293Z,9.97
2023-04-15T04:48:55.867Z,9.97
2023-04-15T04:51:22.499Z,9.97
2023-04-15T04:53:49.033Z,9.96
2023-04-15T04:56:16.030Z,9.98
2023-04-15T04:58:42.614Z,9.97
2023-04-15T05:01:09.165Z,9.98
2023-04-15T05:03:36.059Z,9.99
2023-04-15T05:06:06.128Z,10.01
2023-04-15T05:08:33.057Z,9.99
2023-04-15T05:10:59.489Z,10.00
2023-04-15T05:13:26.177Z,10.00
2023-04-15T05:15:52.747Z,10.01
2023-04-15T05:18:19.375Z,10.00
2023-04-15T05:20:46.256Z,10.02
2023-04-15T05:23:12.810Z,10.01
2023-04-15T05:25:39.382Z,10.01
2023-04-15T05:28:06.484Z,10.01
2023-04-15T05:30:33.029Z,10.02
2023-04-15T05:32:59.656Z,10.02
2023-04-15T05:35:26.170Z,10.03
2023-04-15T05:37:52.656Z,10.02
2023-04-15T05:40:20.075Z,10.02
2023-04-15T05:42:46.688Z,10.03
2023-04-15T05:45:13.600Z,10.04
2023-04-15T05:47:40.241Z,10.04
2023-04-15T05:50:08.283Z,10.05
2023-04-15T05:52:34.793Z,10.04
2023-04-15T05:55:01.472Z,10.03
2023-04-15T05:57:28.436Z,10.05
2023-04-15T05:59:57.221Z,10.03
2023-04-15T06:02:23.731Z,10.06
2023-04-15T06:04:50.379Z,10.07
2023-04-15T06:07:16.961Z,10.06
2023-04-15T06:09:43.463Z,10.08
2023-04-15T06:12:12.326Z,10.09
2023-04-15T06:14:40.470Z,10.09
2023-04-15T06:17:07.615Z,10.09
2023-04-15T06:19:34.587Z,10.10
2023-04-15T06:22:01.812Z,10.11
2023-04-15T06:24:28.742Z,10.12
2023-04-15T06:26:55.922Z,10.11
2023-04-15T06:29:22.428Z,10.09
2023-04-15T06:31:49.644Z,10.13
2023-04-15T06:34:16.358Z,10.13
2023-04-15T06:36:42.985Z,10.14
2023-04-15T06:39:09.490Z,10.11
2023-04-15T06:41:36.556Z,10.14
2023-04-15T06:44:03.289Z,10.14
2023-04-15T06:46:29.858Z,10.15
2023-04-15T06:48:56.335Z,10.15
2023-04-15T06:51:25.575Z,10.16
2023-04-15T06:53:53.368Z,10.15
2023-04-15T06:56:19.862Z,10.15
2023-04-15T06:58:46.356Z,10.16
2023-04-15T07:01:14.410Z,10.16
2023-04-15T07:03:41.940Z,10.16
2023-04-15T07:06:09.531Z,10.18
2023-04-15T07:08:36.307Z,10.17
2023-04-15T07:11:02.798Z,10.18
2023-04-15T07:13:31.915Z,10.18
2023-04-15T07:15:58.817Z,10.16
2023-04-15T07:18:25.541Z,10.20
2023-04-15T07:20:52.181Z,10.18
2023-04-15T07:23:18.824Z,10.20
2023-04-15T07:25:45.357Z,10.21
2023-04-15T07:28:11.957Z,10.21
2023-04-15T07:30:38.959Z,10.22
2023-04-15T07:33:05.650Z,10.22
2023-04-15T07:35:32.110Z,10.25
2023-04-15T07:37:58.723Z,10.26
2023-04-15T07:40:25.212Z,10.26
2023-04-15T07:42:52.465Z,10.28
2023-04-15T07:45:18.967Z,10.25
2023-04-15T07:47:45.990Z,10.29
2023-04-15T07:50:12.795Z,10.30
2023-04-15T07:52:39.436Z,10.29
2023-04-15T07:55:08.415Z,10.31
2023-04-15T07:57:36.160Z,10.31
2023-04-15T08:00:05.798Z,10.33
2023-04-15T08:02:40.655Z,10.34
2023-04-15T08:05:07.801Z,10.34
2023-04-15T08:07:34.399Z,10.36
2023-04-15T08:10:01.083Z,10.37
2023-04-15T08:12:27.572Z,10.38
2023-04-15T08:14:55.436Z,10.38
2023-04-15T08:17:22.010Z,10.39
2023-04-15T08:19:48.567Z,10.41
2023-04-15T08:22:17.660Z,10.41
2023-04-15T08:24:45.633Z,10.43
2023-04-15T08:27:12.215Z,10.43
2023-04-15T08:29:39.068Z,10.45
2023-04-15T08:32:06.364Z,10.47
2023-04-15T08:34:32.971Z,10.45
2023-04-15T08:36:59.397Z,10.48
2023-04-15T08:39:26.322Z,10.48
2023-04-15T08:42:01.933Z,10.49
2023-04-15T08:44:34.869Z,10.50
2023-04-15T08:47:03.052Z,10.51
2023-04-15T08:49:30.465Z,10.52
2023-04-15T08:51:59.683Z,10.54
2023-04-15T08:54:28.075Z,10.53
2023-04-15T08:56:54.814Z,10.54
2023-04-15T08:59:22.197Z,10.52
2023-04-15T09:01:50.939Z,10.55
2023-04-15T09:04:17.556Z,10.56
2023-04-15T09:06:44.312Z,10.58
2023-04-15T09:09:14.177Z,10.60
2023-04-15T09:11:40.904Z,10.58
2023-04-15T09:14:07.552Z,10.62
2023-04-15T09:17:04.281Z,10.60
2023-04-15T09:19:33.393Z,10.63
2023-04-15T09:22:00.071Z,10.64
2023-04-15T09:24:37.296Z,10.65
2023-04-15T09:27:04.175Z,10.65
2023-04-15T09:29:30.598Z,10.68
2023-04-15T09:31:57.088Z,10.71
2023-04-15T09:34:35.678Z,10.69
2023-04-15T09:37:02.116Z,10.74
2023-04-15T09:39:44.725Z,10.75
2023-04-15T09:42:11.501Z,10.75
2023-04-15T09:44:37.949Z,10.78
2023-04-15T09:47:04.522Z,10.76
2023-04-15T09:49:31.038Z,10.82
2023-04-15T09:52:05.992Z,10.83
2023-04-15T09:54:37.830Z,10.85
2023-04-15T09:57:09.845Z,10.83
2023-04-15T09:59:36.610Z,10.88
2023-04-15T10:02:07.462Z,10.88
2023-04-15T10:04:39.786Z,10.91
2023-04-15T10:07:07.307Z,10.93
2023-04-15T10:09:35.930Z,10.93
2023-04-15T10:12:05.603Z,10.97
2023-04-15T10:14:34.563Z,10.97
2023-04-15T10:17:05.598Z,11.00
2023-04-15T10:19:33.826Z,11.03
2023-04-15T10:22:00.505Z,11.03
2023-04-15T10:24:27.995Z,11.07
2023-04-15T10:26:55.429Z,11.06
2023-04-15T10:29:23.297Z,11.11
2023-04-15T10:31:50.151Z,11.12
2023-04-15T10:34:17.450Z,11.15
2023-04-15T10:36:43.861Z,11.18
2023-04-15T10:39:33.885Z,11.18
2023-04-15T10:42:07.788Z,11.23
2023-04-15T10:44:36.664Z,11.25
2023-04-15T10:47:19.428Z,11.27
2023-04-15T10:49:52.340Z,11.30
2023-04-15T10:52:27.448Z,11.36
2023-04-15T10:55:19.155Z,11.38
2023-04-15T10:57:45.956Z,11.42
2023-04-15T11:00:14.822Z,11.44
2023-04-15T11:02:52.181Z,11.46
2023-04-15T11:05:20.672Z,11.50
2023-04-15T11:07:48.404Z,11.54
2023-04-15T11:10:17.527Z,11.58
2023-04-15T11:12:58.002Z,11.60
2023-04-15T11:15:35.820Z,11.64
2023-04-15T11:18:10.466Z,11.66
2023-04-15T11:20:38.658Z,11.72
2023-04-15T11:23:12.146Z,11.74
2023-04-15T11:25:41.726Z,11.74
2023-04-15T11:28:08.312Z,11.79
2023-04-15T11:30:37.312Z,11.85
2023-04-15T11:33:09.497Z,11.89
2023-04-15T11:35:36.328Z,11.92
2023-04-15T11:38:04.003Z,11.91
2023-04-15T11:40:31.582Z,11.99
2023-04-15T11:43:15.886Z,12.00
2023-04-15T11:45:59.941Z,12.07
2023-04-15T11:48:36.576Z,12.08
2023-04-15T11:51:07.835Z,12.12
2023-04-15T11:53:42.542Z,12.15
2023-04-15T11:56:18.658Z,12.13
2023-04-15T11:58:46.389Z,12.21
2023-04-15T12:01:13.640Z,12.25
2023-04-15T12:03:49.425Z,12.26
2023-04-15T12:06:21.386Z,12.26
2023-04-15T12:09:10.052Z,12.35
2023-04-15T12:11:39.599Z,12.38
2023-04-15T12:14:16.644Z,12.41
2023-04-15T12:16:49.301Z,12.45
2023-04-15T12:19:22.638Z,12.43
2023-04-15T12:21:50.473Z,12.49
2023-04-15T12:24:21.852Z,12.51
2023-04-15T12:26:53.656Z,12.54
2023-04-15T12:29:25.025Z,12.56
2023-04-15T12:31:53.682Z,12.59
2023-04-15T12:34:34.696Z,12.59
2023-04-15T12:37:03.561Z,12.61
2023-04-15T12:39:36.412Z,12.63
2023-04-15T12:42:04.376Z,12.67
2023-04-15T12:44:31.601Z,12.70
2023-04-15T12:46:58.252Z,12.70
2023-04-15T12:49:25.624Z,12.71
2023-04-15T12:51:54.710Z,12.75
2023-04-15T12:54:22.037Z,12.79
2023-04-15T12:56:50.261Z,12.80
2023-04-15T12:59:20.174Z,12.83
2023-04-15T13:01:48.542Z,12.85
2023-04-15T13:04:15.610Z,12.86
2023-04-15T13:06:42.972Z,12.91
2023-04-15T13:09:09.578Z,12.92
2023-04-15T13:11:36.561Z,12.93
2023-04-15T13:14:05.152Z,12.94
2023-04-15T13:16:33.227Z,12.97
2023-04-15T13:19:00.336Z,12.97
2023-04-15T13:21:27.333Z,13.00
2023-04-15T13:23:54.305Z,13.01
2023-04-15T13:26:21.248Z,13.03
2023-04-15T13:28:47.973Z,13.04
2023-04-15T13:31:14.579Z,13.04
2023-04-15T13:33:41.266Z,13.05
2023-04-15T13:36:08.348Z,13.06
2023-04-15T13:38:34.837Z,13.09
2023-04-15T13:41:01.573Z,13.10
2023-04-15T13:43:28.314Z,13.11
2023-04-15T13:45:55.313Z,13.12
2023-04-15T13:48:22.088Z,13.12
2023-04-15T13:50:48.579Z,13.13
2023-04-15T13:53:15.124Z,13.13
2023-04-15T13:55:42.802Z,13.14
2023-04-15T13:58:10.242Z,13.14
2023-04-15T14:00:36.962Z,13.15
2023-04-15T14:03:03.893Z,13.16
2023-04-15T14:05:30.747Z,13.16
2023-04-15T14:07:57.597Z,13.17
2023-04-15T14:10:24.274Z,13.18
2023-04-15T14:12:50.982Z,13.19
2023-04-15T14:15:17.496Z,13.19
2023-04-15T14:17:44.141Z,13.19
2023-04-15T14:20:10.914Z,13.20
2023-04-15T14:22:37.573Z,13.19
2023-04-15T14:25:04.839Z,13.18
2023-04-15T14:27:31.392Z,13.19
2023-04-15T14:29:58.752Z,13.20
2023-04-15T14:32:26.296Z,13.21
2023-04-15T14:34:52.855Z,13.22
2023-04-15T14:37:19.484Z,13.23
2023-04-15T14:39:46.296Z,13.24
2023-04-15T14:42:12.789Z,13.24
2023-04-15T14:44:39.270Z,13.28
2023-04-15T14:47:06.104Z,13.29
2023-04-15T14:49:32.689Z,13.31
2023-04-15T14:51:59.246Z,13.31
2023-04-15T14:54:25.737Z,13.32
2023-04-15T14:56:52.271Z,13.32
2023-04-15T14:59:18.766Z,13.33
2023-04-15T15:01:45.565Z,13.39
2023-04-15T15:04:13.078Z,13.37
2023-04-15T15:06:40.638Z,13.39
2023-04-15T15:09:07.602Z,13.39
2023-04-15T15:11:34.219Z,13.41
2023-04-15T15:14:00.951Z,13.44
2023-04-15T15:16:28.255Z,13.44
2023-04-15T15:18:55.409Z,13.45
2023-04-15T15:21:22.008Z,13.47
2023-04-15T15:23:48.517Z,13.45
2023-04-15T15:26:15.750Z,13.48
2023-04-15T15:28:42.418Z,13.50
2023-04-15T15:31:09.002Z,13.51
2023-04-15T15:33:36.071Z,13.53
2023-04-15T15:36:03.776Z,13.55
2023-04-15T15:38:30.331Z,13.56
2023-04-15T15:40:56.787Z,13.57
2023-04-15T15:43:23.340Z,13.57
2023-04-15T15:45:52.196Z,13.59
2023-04-15T15:48:18.829Z,13.60
2023-04-15T15:50:45.779Z,13.60
2023-04-15T15:53:17.831Z,13.62
2023-04-15T15:55:44.287Z,13.62
2023-04-15T15:58:10.971Z,13.64
2023-04-15T16:00:37.446Z,13.63
2023-04-15T16:03:07.258Z,13.62
2023-04-15T16:05:34.526Z,13.66
2023-04-15T16:08:01.112Z,13.64
2023-04-15T16:10:28.021Z,13.68
2023-04-15T16:12:54.937Z,13.69
2023-04-15T16:15:22.866Z,13.67
2023-04-15T16:17:49.581Z,13.69
2023-04-15T16:20:16.626Z,13.69
2023-04-15T16:22:43.128Z,13.68
2023-04-15T16:25:09.983Z,13.70
2023-04-15T16:27:50.281Z,13.70
2023-04-15T16:30:23.252Z,13.68
2023-04-15T16:32:49.790Z,13.71
2023-04-15T16:35:17.108Z,13.71
2023-04-15T16:37:43.698Z,13.71
2023-04-15T16:40:10.675Z,13.73
2023-04-15T16:42:37.203Z,13.72
2023-04-15T16:45:03.942Z,13.70
2023-04-15T16:47:30.505Z,13.74
2023-04-15T16:49:57.000Z,13.72
2023-04-15T16:52:23.497Z,13.73
2023-04-15T16:54:49.977Z,13.72
2023-04-15T16:57:16.545Z,13.73
2023-04-15T16:59:43.035Z,13.70
2023-04-15T17:02:12.464Z,13.72
2023-04-15T17:04:39.710Z,13.71
2023-04-15T17:07:06.800Z,13.68
2023-04-15T17:09:33.525Z,13.66
2023-04-15T17:12:01.033Z,13.66
2023-04-15T17:14:28.852Z,13.63
2023-04-15T17:16:55.875Z,13.66
2023-04-15T17:19:22.493Z,13.64
2023-04-15T17:21:50.582Z,13.63
2023-04-15T17:24:17.227Z,13.60
2023-04-15T17:26:43.848Z,13.61
2023-04-15T17:29:10.402Z,13.61
2023-04-15T17:31:37.108Z,13.58
2023-04-15T17:34:07.804Z,13.58
2023-04-15T17:36:37.373Z,13.56
2023-04-15T17:39:04.660Z,13.55
2023-04-15T17:41:31.372Z,13.54
2023-04-15T17:43:57.872Z,13.52
2023-04-15T17:46:24.639Z,13.52
2023-04-15T17:48:51.168Z,13.49
2023-04-15T17:51:17.810Z,13.45
2023-04-15T17:53:44.288Z,13.46
2023-04-15T17:56:11.023Z,13.45
2023-04-15T17:58:39.373Z,13.44
2023-04-15T18:01:06.605Z,13.42
2023-04-15T18:03:33.280Z,13.41
2023-04-15T18:06:01.308Z,13.40
2023-04-15T18:08:28.833Z,13.39
2023-04-15T18:10:55.266Z,13.37
2023-04-15T18:13:21.720Z,13.36
2023-04-15T18:15:51.627Z,13.31
2023-04-15T18:18:18.332Z,13.30
2023-04-15T18:20:44.778Z,13.29
2023-04-15T18:23:11.423Z,13.28
2023-04-15T18:25:38.341Z,13.26
2023-04-15T18:28:05.593Z,13.25
2023-04-15T18:30:32.125Z,13.23
2023-04-15T18:32:58.779Z,13.21
2023-04-15T18:35:25.276Z,13.16
2023-04-15T18:37:52.838Z,13.20
2023-04-15T18:40:19.436Z,13.18
2023-04-15T18:42:45.942Z,13.17
2023-04-15T18:45:12.486Z,13.14
2023-04-15T18:47:39.167Z,13.12
2023-04-15T18:50:06.747Z,13.11
2023-04-15T18:52:34.131Z,13.10
2023-04-15T18:55:02.994Z,13.07
2023-04-15T18:57:34.784Z,13.08
2023-04-15T19:00:01.993Z,13.06
2023-04-15T19:02:28.634Z,13.01
2023-04-15T19:04:55.204Z,13.03
2023-04-15T19:07:22.126Z,13.02
2023-04-15T19:09:48.892Z,12.98
2023-04-15T19:12:15.320Z,12.98
2023-04-15T19:14:41.756Z,12.94
2023-04-15T19:17:08.231Z,12.95
2023-04-15T19:19:34.740Z,12.94
2023-04-15T19:22:01.681Z,12.92
2023-04-15T19:24:28.265Z,12.88
2023-04-15T19:26:54.717Z,12.89
2023-04-15T19:29:21.871Z,12.87
2023-04-15T19:31:48.366Z,12.86
2023-04-15T19:34:14.829Z,12.84
2023-04-15T19:36:41.357Z,12.83
2023-04-15T19:39:08.418Z,12.81
2023-04-15T19:41:35.022Z,12.81
2023-04-15T19:44:02.959Z,12.79
2023-04-15T19:46:29.560Z,12.76
2023-04-15T19:48:56.161Z,12.73
2023-04-15T19:51:22.710Z,12.75
2023-04-15T19:53:53.871Z,12.75
2023-04-15T19:56:20.670Z,12.71
2023-04-15T19:58:52.774Z,12.72
2023-04-15T20:01:20.341Z,12.69
2023-04-15T20:03:47.466Z,12.69
2023-04-15T20:06:15.639Z,12.66
2023-04-15T20:08:42.150Z,12.63
2023-04-15T20:11:09.854Z,12.61
2023-04-15T20:13:36.811Z,12.61
2023-04-15T20:16:03.455Z,12.61
2023-04-15T20:18:29.971Z,12.59
2023-04-15T20:20:56.402Z,12.55
2023-04-15T20:23:22.813Z,12.57
2023-04-15T20:25:49.217Z,12.55
2023-04-15T20:28:17.875Z,12.52
2023-04-15T20:30:44.440Z,12.51
2023-04-15T20:33:11.566Z,12.51
2023-04-15T20:35:38.846Z,12.48
2023-04-15T20:38:05.738Z,12.45
2023-04-15T20:40:33.712Z,12.45
2023-04-15T20:43:00.540Z,12.40
2023-04-15T20:45:26.960Z,12.40
2023-04-15T20:47:55.090Z,12.39
2023-04-15T20:50:21.614Z,12.35
2023-04-15T20:52:48.020Z,12.36
2023-04-15T20:55:14.493Z,12.35
2023-04-15T20:57:41.115Z,12.29
2023-04-15T21:00:09.811Z,12.31
2023-04-15T21:02:36.943Z,12.29
2023-04-15T21:05:03.624Z,12.25
2023-04-15T21:07:30.069Z,12.25
2023-04-15T21:09:56.618Z,12.23
2023-04-15T21:12:23.166Z,12.21
2023-04-15T21:14:49.861Z,12.21
2023-04-15T21:17:16.407Z,12.18
2023-04-15T21:19:43.009Z,12.14
2023-04-15T21:22:09.791Z,12.12
2023-04-15T21:24:36.198Z,12.13
2023-04-15T21:27:02.818Z,12.10
2023-04-15T21:29:29.279Z,12.08
2023-04-15T21:31:55.733Z,12.06
2023-04-15T21:34:22.185Z,12.04
2023-04-15T21:36:48.606Z,12.02
2023-04-15T21:39:15.228Z,11.99
2023-04-15T21:41:41.724Z,12.00
2023-04-15T21:44:08.215Z,11.97
2023-04-15T21:46:35.922Z,11.98
2023-04-15T21:49:03.471Z,11.97
2023-04-15T21:51:30.063Z,11.95
2023-04-15T21:53:56.878Z,11.93
2023-04-15T21:56:24.553Z,11.92
2023-04-15T21:58:54.036Z,11.91
2023-04-15T22:01:21.080Z,11.89
2023-04-15T22:03:47.857Z,11.88
2023-04-15T22:06:14.447Z,11.86
2023-04-15T22:08:55.151Z,11.84
2023-04-15T22:11:30.181Z,11.79
2023-04-15T22:13:57.674Z,11.80
2023-04-15T22:16:27.497Z,11.80
2023-04-15T22:18:55.186Z,11.78
2023-04-15T22:21:22.016Z,11.75
2023-04-15T22:23:49.219Z,11.74
2023-04-15T22:26:15.786Z,11.72
2023-04-15T22:28:42.206Z,11.72
2023-04-15T22:31:08.782Z,11.70
2023-04-15T22:33:35.419Z,11.69
2023-04-15T22:36:01.971Z,11.67
2023-04-15T22:38:28.423Z,11.67
2023-04-15T22:40:54.968Z,11.65
2023-04-15T22:43:21.524Z,11.64
2023-04-15T22:45:50.517Z,11.62
2023-04-15T22:48:18.133Z,11.56
2023-04-15T22:50:44.678Z,11.57
2023-04-15T22:53:11.237Z,11.57
2023-04-15T22:55:37.643Z,11.55
2023-04-15T22:58:04.184Z,11.53
2023-04-15T23:00:30.612Z,11.53
2023-04-15T23:02:57.156Z,11.46
2023-04-15T23:05:23.790Z,11.48
2023-04-15T23:07:50.816Z,11.46
2023-04-15T23:10:17.236Z,11.46
2023-04-15T23:12:43.685Z,11.40
2023-04-15T23:15:10.530Z,11.41
2023-04-15T23:17:37.020Z,11.39
2023-04-15T23:20:03.601Z,11.41
2023-04-15T23:22:30.581Z,11.39
2023-04-15T23:24:56.998Z,11.35
2023-04-15T23:27:23.453Z,11.35
2023-04-15T23:29:49.895Z,11.32
2023-04-15T23:32:16.320Z,11.33
2023-04-15T23:34:42.798Z,11.32
2023-04-15T23:37:09.217Z,11.29
2023-04-15T23:39:35.614Z,11.24
2023-04-15T23:42:02.176Z,11.24
2023-04-15T23:44:28.595Z,11.26
2023-04-15T23:46:55.052Z,11.23
2023-04-15T23:49:21.558Z,11.24
2023-04-15T23:51:48.040Z,11.22
2023-04-15T23:54:14.910Z,11.18
2023-04-15T23:56:41.356Z,11.20
2023-04-15T23:59:08.061Z,11.18
